• Join FlightAware (Why Join?)
  • Login
  • US Flag 
08:55AM EDT


 

Airport Tracker/Info


-or-


 

Live Flight TrackerFlight Track Log ✈ ENY3701 ✈ 31-Jul-2014 ✈ KDSM - KORD

Flight Track Log - Related Links

Times and Time Zones

All times are in EDT time to prevent confusion due to time zone crossing. See the ENY3701 flight status page for this flight to view local times or setup timezone preferences in your user account.

Time Position Orientation Groundspeed Altitude Reporting Facility
EDT Latitude Longitude Course Direction KTS MPH feet Rate Location/Type
07:16PM 41.4636 -93.7200 197° South 215 247 5,000  Level Minneapolis Center
07:17PM 41.4744 -93.6394 80° East 238 274 7,700 2,280 Climbing Minneapolis Center
07:18PM 41.5194 -93.5806 44° Northeast 245 282 9,800 2,220 Climbing Minneapolis Center
07:19PM 41.5686 -93.5092 47° Northeast 256 295 12,300 2,160 Climbing Minneapolis Center
07:20PM 41.5349 -93.6615 50° Northeast  Level FlightAware Approximate
07:20PM 41.6200 -93.4336 48° Northeast 269 310 14,300  Level Minneapolis Center
07:21PM 41.6886 -93.3325 48° Northeast 302 348 16,200 1,860 Climbing Minneapolis Center
07:22PM 41.7481 -93.2422 49° Northeast 318 366 18,200 1,920 Climbing Minneapolis Center
07:23PM 41.8092 -93.1497 48° Northeast 328 377 20,200 1,920 Climbing Minneapolis Center
07:24PM 41.8725 -93.0556 48° Northeast 336 387 22,200 1,920 Climbing Minneapolis Center
07:25PM 41.9347 -92.9600 49° Northeast 338 389 24,200 1,440 Climbing Minneapolis Center
07:26PM 42.0081 -92.8503 48° Northeast 353 406 25,200 1,140 Climbing Minneapolis Center
07:27PM 42.0919 -92.7214 49° Northeast 374 430 26,800 780 Climbing Chicago Center
07:28PM 42.1772 -92.5917 48° Northeast 387 445 27,000 60 Climbing Chicago Center
07:29PM 42.2483 -92.4828 49° Northeast 391 450 27,000  Level Chicago Center
07:30PM 42.3192 -92.3750 48° Northeast 390 449 27,000  Level Chicago Center
07:31PM 42.3786 -92.2583 55° Northeast 389 448 27,000  Level Chicago Center
07:32PM 42.3917 -92.1031 83° East 416 479 27,000  Level Chicago Center
07:33PM 42.4033 -91.9050 85° East 445 512 27,000  Level Chicago Center
07:34PM 42.4331 -91.7458 76° East 452 520 27,000  Level Chicago Center
07:36PM 42.4806 -91.5978 66° East 440 506 27,000  Level Chicago Center
07:37PM 42.5269 -91.4500 67° East 439 505 27,000 -180 Level Chicago Center
07:38PM 42.5303 -91.2533 89° East 445 512 26,700 -600 Descending Chicago Center
07:39PM 42.5289 -91.0889 91° East 445 512 25,800 -960 Descending Chicago Center
07:40PM 42.5275 -90.9289 91° East 437 503 24,800 -900 Descending Chicago Center
07:41PM 42.5272 -90.7683 90° East 434 499 24,000 -420 Descending Chicago Center
07:42PM 42.5261 -90.5767 90° East 430 495 24,000  Level Chicago Center
07:43PM 42.5242 -90.4086 91° East 447 514 24,000  Level Chicago Center
07:44PM 42.5233 -90.2400 90° East 451 519 24,000  Level Chicago Center
07:45PM 42.5217 -90.0694 91° East 456 525 24,000 -60 Level Chicago Center
07:46PM 42.5189 -89.8836 91° East 455 524 23,900 -1,200 Descending Chicago Center
07:47PM 42.5158 -89.7172 91° East 447 514 21,600 -2,040 Descending Chicago Center
07:48PM 42.5144 -89.5547 91° East 439 505 19,700 -1,920 Descending Chicago Center
07:49PM 42.5106 -89.3703 92° East 412 474 17,700 -1,680 Descending Chicago Center
07:50PM 42.5089 -89.2183 91° East 408 470 16,200 -1,500 Descending Chicago Center
07:51PM 42.5067 -89.0706 91° East 395 455 14,600 -1,500 Descending Chicago Center
07:52PM 42.5050 -88.9281 91° East 389 448 13,200 -1,440 Descending Chicago Center
07:53PM 42.4653 -88.7975 112° Southeast 376 433 11,700 -1,080 Descending Chicago Center
07:54PM 42.4175 -88.6433 113° Southeast 376 433 11,000 -360 Descending Chicago Center
07:55PM 42.3783 -88.5136 112° Southeast 375 432 11,000  Level Chicago Center
07:56PM 42.3394 -88.3869 113° Southeast 374 430 11,000  Level Chicago Center
07:57PM 42.2642 -88.2611 129° Southeast 376 433 11,000 -60 Level Chicago Center
07:58PM 42.1992 -88.1536 129° Southeast 373 429 10,900 -600 Descending Chicago Center
07:59PM 42.1272 -88.0681 139° Southeast 314 361 9,800 -1,020 Descending Chicago Center
08:00PM 42.0903 -87.9761 118° Southeast 299 344 8,800 -1,020 Descending Chicago Center
08:01PM 42.0906 -87.8661 90° East 298 343 7,800 -1,020 Descending Chicago Center
08:02PM 42.0906 -87.7511 90° East 287 330 6,700 -900 Descending Chicago Center
08:03PM 42.0917 -87.6464 89° East 283 326 6,000 -780 Descending Chicago Center
08:05PM 42.0906 -87.5358 91° East 277 319 5,100 -540 Descending Chicago Center
08:06PM 42.0875 -87.4467 93° East 245 282 4,900 -540 Descending Chicago Center
08:07PM 42.0236 -87.4233 165° South 231 266 4,100 -480 Descending Chicago Center
08:08PM 42.0017 -87.4903 246° West 196 226 4,000 -60 Descending Chicago Center
08:09PM 42.0022 -87.5628 271° West 183 211 4,000  Level Chicago Center
08:10PM 42.0022 -87.6303 270° West 182 209 4,000 -300 Level Chicago Center
08:11PM 42.0025 -87.7039 270° West 183 211 3,500 -780 Descending Chicago Center
08:12PM 42.0033 -87.7703 271° West 182 209 2,500 -960 Descending Chicago Center
08:13PM 42.0028 -87.8353 269° West 162 186 1,600 -720 Descending Chicago Center
08:14PM 42.0025 -87.8825 270° West 134 154 1,000 -600 Descending Chicago Center